Time;durP1;ratioP1;P1;durP2;ratioP2;P2;SDS_P1;SDS_P2;PMS_P1;PMS_P2;Temp;Humidity;BMP_temperature;BMP_pressure;BME280_temperature;BME280_humidity;BME280_pressure;Samples;Min_cycle;Max_cycle;Signal;HPM_P1;HPM_P2
2021/05/27 00:00:19;;;;;;;1.13;0.93;;;9.10;99.90;;;;;;5011968;28;20458;-79
2021/05/27 00:02:46;;;;;;;2.60;1.40;;;9.10;99.90;;;;;;5030654;28;20677;-78
2021/05/27 00:05:13;;;;;;;1.33;0.80;;;9.20;99.90;;;;;;5030320;28;20440;-79
2021/05/27 00:07:40;;;;;;;3.13;1.13;;;9.20;99.90;;;;;;5030386;28;21171;-79
2021/05/27 00:10:08;;;;;;;1.03;0.80;;;9.10;99.90;;;;;;5016288;28;20442;-77
2021/05/27 00:12:34;;;;;;;1.20;1.07;;;9.10;99.90;;;;;;5023114;28;20513;-76
2021/05/27 00:15:00;;;;;;;1.23;1.17;;;9.10;99.90;;;;;;5021457;28;20500;-78
2021/05/27 00:17:26;;;;;;;2.07;1.10;;;9.10;99.90;;;;;;5020034;28;20663;-77
2021/05/27 00:19:52;;;;;;;3.03;1.33;;;9.10;99.90;;;;;;5019592;28;20425;-77
2021/05/27 00:22:17;;;;;;;2.07;1.00;;;9.10;99.90;;;;;;5004809;28;20246;-77
2021/05/27 00:24:43;;;;;;;4.20;1.50;;;9.10;99.90;;;;;;5020660;28;20187;-79
2021/05/27 00:27:08;;;;;;;1.60;1.07;;;9.10;99.90;;;;;;5013306;28;20707;-78
2021/05/27 00:29:34;;;;;;;0.80;0.80;;;9.10;99.90;;;;;;5011555;28;20268;-78
2021/05/27 00:32:00;;;;;;;1.70;1.00;;;9.10;99.90;;;;;;5030048;28;20186;-77
2021/05/27 00:34:25;;;;;;;1.07;1.07;;;9.10;99.90;;;;;;5030578;28;20732;-80
2021/05/27 00:36:51;;;;;;;1.00;1.00;;;9.10;99.90;;;;;;5030045;28;20301;-77
2021/05/27 00:39:17;;;;;;;0.80;0.80;;;9.10;99.90;;;;;;5030792;28;20245;-78
2021/05/27 00:41:42;;;;;;;1.97;0.80;;;9.10;99.90;;;;;;5030308;28;20669;-78
2021/05/27 00:44:18;;;;;;;1.20;1.07;;;9.10;99.90;;;;;;5012697;28;20186;-80
2021/05/27 00:46:43;;;;;;;1.10;1.00;;;9.10;99.90;;;;;;5026352;28;20188;-79
2021/05/27 00:49:09;;;;;;;1.27;1.10;;;9.10;99.90;;;;;;5004398;28;20485;-78
2021/05/27 00:51:34;;;;;;;0.87;0.87;;;9.10;99.90;;;;;;5019605;28;20191;-80
2021/05/27 00:54:00;;;;;;;1.77;1.00;;;9.00;99.90;;;;;;5025300;28;20189;-77
2021/05/27 00:56:26;;;;;;;3.17;1.10;;;9.00;99.90;;;;;;5027984;28;20209;-80
2021/05/27 00:58:53;;;;;;;1.47;1.27;;;9.10;99.90;;;;;;5030710;28;20189;-78
2021/05/27 01:01:18;;;;;;;2.50;1.40;;;9.00;99.90;;;;;;5029029;28;20496;-78
2021/05/27 01:03:44;;;;;;;1.63;0.97;;;9.00;99.90;;;;;;5033355;28;20440;-79
2021/05/27 01:06:10;;;;;;;1.90;1.47;;;9.00;99.90;;;;;;5033779;28;20267;-80
2021/05/27 01:08:36;;;;;;;3.03;1.20;;;9.00;99.90;;;;;;5034080;28;20213;-78
2021/05/27 01:11:05;;;;;;;1.00;1.00;;;9.00;99.90;;;;;;5015064;28;20427;-79
2021/05/27 01:13:32;;;;;;;1.70;1.30;;;9.00;99.90;;;;;;5016252;28;20422;-78
2021/05/27 01:15:58;;;;;;;1.47;1.37;;;9.00;99.90;;;;;;5033688;28;20777;-78
2021/05/27 01:18:25;;;;;;;6.93;1.30;;;8.90;99.90;;;;;;5033452;28;20545;-78
2021/05/27 01:20:53;;;;;;;1.63;1.10;;;8.90;99.90;;;;;;5033321;28;20446;-77
2021/05/27 01:23:20;;;;;;;3.40;1.10;;;8.90;99.90;;;;;;5033199;28;20425;-78
2021/05/27 01:25:49;;;;;;;1.60;1.50;;;8.90;99.90;;;;;;5033786;28;20444;-78
2021/05/27 01:28:16;;;;;;;1.10;1.00;;;8.80;99.90;;;;;;5033521;28;20466;-77
2021/05/27 01:30:42;;;;;;;1.27;1.17;;;8.80;99.90;;;;;;5015929;28;20815;-78
2021/05/27 01:33:09;;;;;;;2.40;1.37;;;8.80;99.90;;;;;;5032310;28;20428;-78
2021/05/27 01:35:36;;;;;;;1.10;1.00;;;8.80;99.90;;;;;;5033503;28;20430;-80
2021/05/27 01:38:14;;;;;;;1.00;1.00;;;8.80;99.90;;;;;;5033016;28;20577;-80
2021/05/27 01:40:40;;;;;;;5.20;1.50;;;8.80;99.90;;;;;;5033591;28;20415;-80
2021/05/27 01:43:06;;;;;;;1.43;1.33;;;8.80;99.90;;;;;;5032063;28;20581;-79
2021/05/27 01:45:31;;;;;;;6.60;1.30;;;8.80;99.90;;;;;;5015379;28;20995;-78
2021/05/27 01:47:57;;;;;;;1.27;1.10;;;8.80;99.90;;;;;;5032802;28;20660;-78
2021/05/27 01:50:23;;;;;;;2.83;1.00;;;8.80;99.90;;;;;;5033129;28;20189;-77
2021/05/27 01:52:49;;;;;;;2.67;1.57;;;8.80;99.90;;;;;;5015094;28;20236;-77
2021/05/27 01:55:15;;;;;;;1.87;1.40;;;8.80;99.90;;;;;;5015517;28;20447;-77
2021/05/27 01:57:40;;;;;;;1.10;1.10;;;8.80;99.90;;;;;;5014584;28;20442;-79
2021/05/27 02:00:07;;;;;;;9.37;1.10;;;8.80;99.90;;;;;;5032511;28;20255;-78
2021/05/27 02:02:32;;;;;;;1.27;1.17;;;8.90;99.90;;;;;;5032965;28;20181;-78
2021/05/27 02:04:58;;;;;;;4.70;1.10;;;8.90;99.90;;;;;;5032355;28;20435;-77
2021/05/27 02:07:23;;;;;;;1.60;1.23;;;8.90;99.90;;;;;;5032881;28;20206;-77
2021/05/27 02:09:49;;;;;;;1.13;1.03;;;8.90;99.90;;;;;;5033028;28;20245;-77
2021/05/27 02:12:15;;;;;;;3.20;1.43;;;8.80;99.90;;;;;;5031791;28;20198;-80
2021/05/27 02:14:41;;;;;;;1.10;1.00;;;8.90;99.90;;;;;;5013736;28;20184;-81
2021/05/27 02:17:06;;;;;;;1.40;1.30;;;8.80;99.90;;;;;;5033167;28;20428;-78
2021/05/27 02:19:32;;;;;;;1.40;1.10;;;8.80;99.90;;;;;;5014877;28;20652;-79
2021/05/27 02:21:57;;;;;;;3.30;0.80;;;8.80;99.90;;;;;;5014144;28;20176;-77
2021/05/27 02:24:23;;;;;;;1.43;1.33;;;8.80;99.90;;;;;;5031986;28;20181;-77
2021/05/27 02:26:48;;;;;;;1.30;1.20;;;8.80;99.90;;;;;;5032556;28;20200;-78
2021/05/27 02:29:14;;;;;;;1.20;1.10;;;8.80;99.90;;;;;;5032115;28;20214;-78
2021/05/27 02:31:40;;;;;;;1.17;1.10;;;8.70;99.90;;;;;;5032396;28;20168;-77
2021/05/27 02:34:05;;;;;;;4.10;1.20;;;8.80;99.90;;;;;;5031838;28;20186;-77
2021/05/27 02:36:31;;;;;;;1.43;1.33;;;8.70;99.90;;;;;;5032130;28;20854;-78
2021/05/27 02:38:57;;;;;;;1.87;1.33;;;8.70;99.90;;;;;;5014294;28;20661;-76
2021/05/27 02:41:23;;;;;;;1.57;1.37;;;8.70;99.90;;;;;;5032066;28;20450;-78
2021/05/27 02:43:50;;;;;;;3.20;1.67;;;8.70;99.90;;;;;;5031503;28;20426;-78
2021/05/27 02:46:15;;;;;;;2.60;1.80;;;8.70;99.90;;;;;;5014520;28;20451;-79
2021/05/27 02:48:41;;;;;;;1.47;1.37;;;8.70;99.90;;;;;;5032000;28;21273;-77
2021/05/27 02:51:06;;;;;;;2.60;1.57;;;8.70;99.90;;;;;;5032075;28;20175;-77
2021/05/27 02:53:32;;;;;;;1.40;1.30;;;8.60;99.90;;;;;;5030845;28;20550;-78
2021/05/27 02:55:57;;;;;;;2.53;1.40;;;8.70;99.90;;;;;;5031487;28;20196;-78
2021/05/27 02:58:23;;;;;;;1.53;1.47;;;8.70;99.90;;;;;;5031726;28;20212;-77
2021/05/27 03:00:49;;;;;;;1.20;1.20;;;8.70;99.90;;;;;;5031842;28;20254;-77
2021/05/27 03:03:21;;;;;;;1.97;1.87;;;8.60;99.90;;;;;;5012808;28;20651;-78
2021/05/27 03:05:48;;;;;;;1.67;1.43;;;8.60;99.90;;;;;;5030480;28;20179;-79
2021/05/27 03:08:13;;;;;;;2.67;1.80;;;8.60;99.90;;;;;;5013300;28;20669;-77
2021/05/27 03:10:39;;;;;;;3.33;1.90;;;8.60;99.90;;;;;;5030980;28;20493;-78
2021/05/27 03:13:07;;;;;;;3.63;2.10;;;8.50;99.90;;;;;;5030711;28;20191;-77
2021/05/27 03:15:32;;;;;;;4.70;1.70;;;8.50;99.90;;;;;;5031952;28;20408;-78
2021/05/27 03:18:00;;;;;;;3.90;1.47;;;8.50;99.90;;;;;;5030846;28;20540;-78
2021/05/27 03:20:26;;;;;;;2.20;2.00;;;8.50;99.90;;;;;;5031617;28;20233;-77
2021/05/27 03:22:51;;;;;;;1.67;1.57;;;8.40;99.90;;;;;;5030708;28;20439;-76
2021/05/27 03:25:17;;;;;;;1.77;1.67;;;8.40;99.90;;;;;;5030741;28;20217;-77
2021/05/27 03:27:42;;;;;;;10.90;1.80;;;8.30;99.90;;;;;;5031431;28;20231;-77
2021/05/27 03:30:08;;;;;;;1.63;1.27;;;8.30;99.90;;;;;;5031156;28;20535;-80
2021/05/27 03:32:34;;;;;;;2.00;1.70;;;8.20;99.90;;;;;;5030036;28;20782;-80
2021/05/27 03:34:59;;;;;;;2.77;1.63;;;8.10;99.90;;;;;;5013956;28;20423;-77
2021/05/27 03:37:25;;;;;;;3.03;1.37;;;8.10;99.90;;;;;;5031400;28;20211;-77
2021/05/27 03:42:34;;;;;;;2.00;1.90;;;8.00;99.90;;;;;;5029842;28;20204;-75
2021/05/27 03:45:04;;;;;;;2.20;1.93;;;8.10;99.90;;;;;;5031348;28;20412;-77
2021/05/27 03:47:29;;;;;;;2.57;1.60;;;8.10;99.90;;;;;;5031093;28;20211;-77
2021/05/27 03:49:55;;;;;;;2.70;1.60;;;8.00;99.90;;;;;;5032729;28;20784;-77
2021/05/27 03:52:20;;;;;;;1.80;1.70;;;8.10;99.90;;;;;;5030249;28;20188;-79
2021/05/27 03:54:46;;;;;;;2.33;1.53;;;8.10;99.90;;;;;;5030476;28;20251;-78
2021/05/27 03:57:11;;;;;;;1.77;1.67;;;8.10;99.90;;;;;;5030932;28;20580;-77
2021/05/27 04:02:21;;;;;;;1.87;1.77;;;8.20;99.90;;;;;;5030564;28;20227;-77
2021/05/27 04:07:31;;;;;;;2.10;1.57;;;8.20;99.90;;;;;;5031195;28;20222;-77
2021/05/27 04:09:56;;;;;;;3.27;1.60;;;8.20;99.90;;;;;;5030647;28;20929;-77
2021/05/27 04:18:12;;;;;;;1.63;1.53;;;8.30;99.90;;;;;;4997410;28;20454;-74
2021/05/27 04:20:55;;;;;;;4.13;2.77;;;8.30;99.90;;;;;;5030619;28;20983;-75
2021/05/27 04:23:38;;;;;;;1.53;1.40;;;8.20;99.90;;;;;;5030106;28;20969;-75
2021/05/27 04:26:10;;;;;;;5.17;2.07;;;8.30;99.90;;;;;;5030884;28;20451;-76
2021/05/27 04:28:37;;;;;;;2.57;2.37;;;8.30;99.90;;;;;;5030851;28;20470;-75
2021/05/27 04:31:10;;;;;;;1.80;1.70;;;8.30;99.90;;;;;;5030478;28;20490;-75
2021/05/27 04:33:49;;;;;;;1.67;1.57;;;8.30;99.90;;;;;;5012401;28;20800;-77
2021/05/27 04:36:17;;;;;;;3.73;2.07;;;8.30;99.90;;;;;;5013191;28;20502;-75
2021/05/27 04:38:43;;;;;;;3.07;1.90;;;8.30;99.90;;;;;;5034420;28;20449;-76
2021/05/27 04:41:10;;;;;;;2.73;2.00;;;8.40;99.90;;;;;;5033989;28;20434;-74
2021/05/27 04:43:35;;;;;;;4.37;2.50;;;8.40;99.90;;;;;;5033027;28;20461;-75
2021/05/27 04:46:02;;;;;;;2.47;2.17;;;8.50;99.90;;;;;;5034572;28;20424;-75
2021/05/27 04:48:27;;;;;;;1.83;1.73;;;8.50;99.90;;;;;;5034326;28;20219;-75
2021/05/27 04:50:53;;;;;;;3.60;1.77;;;8.60;99.90;;;;;;5034282;28;20493;-76
2021/05/27 04:53:23;;;;;;;2.40;2.30;;;8.80;99.90;;;;;;5033357;28;20186;-75
2021/05/27 04:55:49;;;;;;;2.87;1.50;;;8.90;99.90;;;;;;5034469;28;20693;-75
2021/05/27 04:58:16;;;;;;;2.80;1.93;;;9.00;99.90;;;;;;5016471;28;20466;-75
2021/05/27 05:00:42;;;;;;;4.43;2.00;;;9.10;99.90;;;;;;5015956;28;20446;-74
2021/05/27 05:03:07;;;;;;;3.40;1.40;;;9.40;99.90;;;;;;5032685;28;20939;-74
2021/05/27 05:05:35;;;;;;;1.83;1.23;;;10.00;99.90;;;;;;5033930;28;20479;-74
2021/05/27 05:08:01;;;;;;;2.70;1.00;;;12.30;99.90;;;;;;5033912;28;20208;-74
2021/05/27 05:10:27;;;;;;;1.30;1.20;;;14.50;99.90;;;;;;5033586;28;20428;-75
2021/05/27 05:12:54;;;;;;;0.90;0.90;;;16.70;99.90;;;;;;5032875;28;20429;-75
2021/05/27 05:15:24;;;;;;;1.37;0.80;;;18.80;99.90;;;;;;5032345;28;20416;-75
2021/05/27 05:17:56;;;;;;;3.40;1.00;;;19.60;99.90;;;;;;5033697;28;20431;-75
2021/05/27 05:20:24;;;;;;;2.23;0.90;;;20.30;99.90;;;;;;5033780;28;20468;-73
2021/05/27 05:22:50;;;;;;;1.93;0.67;;;21.50;99.90;;;;;;5032206;28;20434;-73
2021/05/27 05:25:17;;;;;;;1.60;0.60;;;21.30;99.90;;;;;;5033430;28;20436;-74
2021/05/27 05:27:43;;;;;;;1.00;0.90;;;22.20;99.90;;;;;;5033242;28;20464;-74
2021/05/27 05:30:10;;;;;;;0.87;0.70;;;20.80;99.90;;;;;;5033207;28;20523;-74
2021/05/27 05:32:36;;;;;;;1.27;0.83;;;21.00;99.90;;;;;;5032326;28;20915;-74
2021/05/27 05:35:04;;;;;;;1.97;0.80;;;21.50;99.90;;;;;;5033175;28;20495;-74
2021/05/27 05:37:30;;;;;;;4.20;1.10;;;22.10;99.90;;;;;;5033801;28;20425;-74
2021/05/27 05:39:55;;;;;;;2.30;0.93;;;22.40;99.90;;;;;;5032883;28;20910;-74
2021/05/27 05:42:21;;;;;;;1.40;1.07;;;21.60;99.90;;;;;;5032240;28;20221;-74
2021/05/27 05:44:46;;;;;;;1.73;1.10;;;21.10;99.90;;;;;;5032524;28;20186;-74
2021/05/27 05:47:12;;;;;;;2.30;0.93;;;20.10;99.90;;;;;;5033237;28;20714;-71
2021/05/27 05:49:38;;;;;;;1.20;1.00;;;19.10;99.90;;;;;;5032997;28;20281;-73
2021/05/27 05:52:04;;;;;;;1.97;1.10;;;18.60;99.90;;;;;;5032119;28;20182;-74
2021/05/27 05:54:29;;;;;;;1.87;1.53;;;18.30;99.90;;;;;;5032377;28;20256;-73
2021/05/27 05:56:55;;;;;;;1.47;1.03;;;17.70;99.90;;;;;;5018539;28;20455;-74
2021/05/27 05:59:20;;;;;;;1.20;1.10;;;17.20;99.90;;;;;;5024664;28;20220;-74
2021/05/27 06:01:46;;;;;;;1.33;1.00;;;17.20;99.90;;;;;;5026594;28;20221;-73
2021/05/27 06:04:11;;;;;;;1.53;1.10;;;17.20;99.90;;;;;;5002726;28;20188;-74
2021/05/27 06:06:37;;;;;;;1.83;1.00;;;16.90;99.90;;;;;;5030723;28;20186;-73
2021/05/27 06:09:03;;;;;;;3.17;1.43;;;16.90;99.90;;;;;;5032146;28;20262;-72
2021/05/27 06:11:29;;;;;;;1.07;0.90;;;16.80;99.90;;;;;;5032111;28;20178;-71
2021/05/27 06:13:54;;;;;;;1.70;0.93;;;16.20;99.90;;;;;;5031710;28;20420;-70
2021/05/27 06:16:20;;;;;;;1.40;0.83;;;16.20;99.90;;;;;;5032861;28;20186;-69
2021/05/27 06:18:46;;;;;;;1.70;0.97;;;16.00;99.90;;;;;;5014648;28;20194;-72
2021/05/27 06:21:11;;;;;;;75.80;6.30;;;16.20;99.90;;;;;;5031538;28;20604;-70
2021/05/27 06:23:37;;;;;;;6.30;1.10;;;16.40;99.90;;;;;;5031619;28;20324;-71
2021/05/27 06:26:02;;;;;;;9.13;1.67;;;16.40;99.90;;;;;;5032086;28;20221;-70
2021/05/27 06:28:28;;;;;;;9.00;1.40;;;16.70;99.90;;;;;;5032522;28;20224;-70
2021/05/27 06:30:54;;;;;;;1.17;0.90;;;16.40;99.90;;;;;;5032054;28;20186;-70
2021/05/27 06:33:20;;;;;;;6.90;1.37;;;16.40;99.90;;;;;;5030929;28;20599;-71
2021/05/27 06:35:45;;;;;;;1.97;0.90;;;16.30;99.90;;;;;;5013963;28;20197;-71
2021/05/27 06:38:13;;;;;;;4.07;1.17;;;16.50;99.90;;;;;;5032155;28;20460;-70
2021/05/27 06:40:40;;;;;;;1.57;1.20;;;16.40;99.90;;;;;;5031705;28;20188;-70
2021/05/27 06:43:06;;;;;;;1.20;1.10;;;16.40;99.90;;;;;;5031114;28;20417;-70
2021/05/27 06:45:32;;;;;;;2.03;1.00;;;16.50;99.90;;;;;;5031435;28;21152;-73
2021/05/27 06:47:58;;;;;;;8.10;1.70;;;16.80;99.90;;;;;;5031886;28;20528;-70
2021/05/27 06:50:33;;;;;;;0.80;0.70;;;16.70;99.90;;;;;;5031711;28;20425;-70
2021/05/27 06:53:01;;;;;;;2.10;1.07;;;16.90;99.90;;;;;;5031031;28;20682;-70
2021/05/27 06:55:27;;;;;;;1.27;1.07;;;16.70;99.90;;;;;;5031272;28;20901;-70
2021/05/27 06:57:52;;;;;;;6.10;1.10;;;16.40;99.90;;;;;;5030302;28;20535;-71
2021/05/27 07:00:19;;;;;;;2.87;1.03;;;16.20;99.90;;;;;;5029522;28;20182;-70
2021/05/27 07:02:45;;;;;;;5.23;0.90;;;16.30;99.90;;;;;;5030156;28;20201;-71
2021/05/27 07:05:11;;;;;;;2.90;1.33;;;16.40;99.90;;;;;;5031556;28;20909;-71
2021/05/27 07:07:36;;;;;;;2.40;1.20;;;16.20;99.90;;;;;;5031814;28;20249;-70
2021/05/27 07:10:02;;;;;;;7.87;1.20;;;16.10;99.90;;;;;;5030381;28;20706;-71
2021/05/27 07:12:28;;;;;;;0.90;0.90;;;16.10;99.90;;;;;;5030438;28;20189;-70
2021/05/27 07:14:54;;;;;;;1.33;0.80;;;15.60;99.90;;;;;;5030775;28;20801;-71
2021/05/27 07:17:19;;;;;;;0.80;0.80;;;16.10;99.90;;;;;;5031791;28;20198;-70
2021/05/27 07:19:45;;;;;;;3.00;1.00;;;16.40;99.90;;;;;;5030911;28;20208;-70
2021/05/27 07:22:10;;;;;;;0.90;0.87;;;16.80;99.90;;;;;;5030885;28;20182;-71
2021/05/27 07:24:36;;;;;;;0.80;0.77;;;17.10;99.90;;;;;;5030909;28;20258;-70
2021/05/27 07:27:01;;;;;;;3.80;1.00;;;17.40;99.90;;;;;;5029900;28;20207;-71
2021/05/27 07:29:29;;;;;;;5.33;1.53;;;17.30;99.90;;;;;;5030390;28;20636;-71
2021/05/27 07:31:54;;;;;;;2.87;1.30;;;17.40;99.90;;;;;;5029689;28;20751;-71
2021/05/27 07:34:20;;;;;;;2.37;1.10;;;17.60;99.90;;;;;;5031003;28;20428;-70
2021/05/27 07:36:45;;;;;;;3.77;1.27;;;18.00;99.90;;;;;;5030840;28;20209;-71
2021/05/27 07:39:11;;;;;;;2.83;0.87;;;18.00;99.90;;;;;;5030728;28;20190;-71
2021/05/27 07:41:37;;;;;;;3.33;1.00;;;18.10;99.90;;;;;;5030916;28;20221;-71
2021/05/27 07:44:02;;;;;;;2.70;1.10;;;17.80;99.90;;;;;;5029621;28;20181;-70
2021/05/27 07:46:28;;;;;;;2.20;0.93;;;17.90;99.90;;;;;;5030844;28;20194;-71
2021/05/27 07:48:54;;;;;;;2.60;1.20;;;18.60;99.90;;;;;;5030400;28;20252;-71
2021/05/27 07:51:21;;;;;;;1.07;0.97;;;18.80;99.90;;;;;;5012951;28;20170;-71
2021/05/27 07:53:47;;;;;;;6.63;1.67;;;18.80;99.90;;;;;;5030525;28;20779;-71
2021/05/27 07:56:12;;;;;;;0.70;0.70;;;18.40;99.90;;;;;;5029921;28;20535;-72
2021/05/27 07:58:38;;;;;;;4.70;0.90;;;18.70;99.90;;;;;;5030759;28;20864;-71
2021/05/27 08:01:05;;;;;;;3.23;0.97;;;18.90;99.90;;;;;;5027649;28;20774;-70
2021/05/27 08:03:31;;;;;;;1.40;1.30;;;19.00;99.90;;;;;;5031709;28;20194;-71
2021/05/27 08:05:56;;;;;;;1.23;0.90;;;19.30;99.90;;;;;;5029288;28;20429;-70
2021/05/27 08:08:22;;;;;;;1.07;0.77;;;19.70;99.90;;;;;;5030298;28;21048;-71
2021/05/27 08:10:47;;;;;;;0.97;0.87;;;20.20;99.90;;;;;;5030299;28;20181;-71
2021/05/27 08:13:14;;;;;;;4.87;1.10;;;20.30;99.90;;;;;;5033002;28;20651;-71
2021/05/27 08:15:41;;;;;;;2.03;0.80;;;20.10;99.90;;;;;;5023650;28;20177;-70
2021/05/27 08:18:07;;;;;;;1.13;0.97;;;20.10;99.90;;;;;;5021631;28;20527;-70
2021/05/27 08:20:33;;;;;;;0.80;0.70;;;20.20;99.90;;;;;;5031578;28;20428;-70
2021/05/27 08:22:59;;;;;;;0.80;0.80;;;20.70;99.90;;;;;;5032976;28;20431;-70
2021/05/27 08:25:25;;;;;;;1.37;1.00;;;20.40;99.90;;;;;;5034546;28;20421;-71
2021/05/27 08:27:50;;;;;;;0.80;0.77;;;20.00;99.90;;;;;;5034283;28;20332;-70
2021/05/27 08:30:16;;;;;;;1.40;0.90;;;19.20;99.90;;;;;;5034705;28;20182;-71
2021/05/27 08:32:42;;;;;;;4.27;1.20;;;19.50;99.90;;;;;;5033787;28;20538;-73
2021/05/27 08:35:08;;;;;;;1.27;0.93;;;20.10;99.90;;;;;;5034416;28;20419;-71
2021/05/27 08:37:34;;;;;;;1.27;0.90;;;20.80;99.90;;;;;;5016054;28;20210;-70
2021/05/27 08:39:59;;;;;;;4.73;1.10;;;20.20;99.90;;;;;;5034016;28;20463;-70
2021/05/27 08:42:26;;;;;;;2.43;0.80;;;19.30;99.90;;;;;;5026198;28;20189;-70
2021/05/27 08:44:55;;;;;;;1.20;1.00;;;19.10;99.90;;;;;;5033260;28;20178;-70
2021/05/27 08:47:21;;;;;;;3.33;0.80;;;19.30;99.90;;;;;;5024775;28;20983;-71
2021/05/27 08:49:49;;;;;;;2.97;0.70;;;19.50;99.90;;;;;;5033224;28;20509;-71
2021/05/27 08:52:15;;;;;;;1.80;0.70;;;20.30;99.90;;;;;;5032686;28;20181;-71
2021/05/27 08:54:41;;;;;;;1.13;0.80;;;20.90;99.90;;;;;;5033250;28;20448;-70
2021/05/27 08:57:07;;;;;;;1.00;0.90;;;21.80;99.90;;;;;;5033109;28;20463;-71
2021/05/27 08:59:32;;;;;;;3.00;0.70;;;22.00;99.90;;;;;;5032086;28;20424;-71
2021/05/27 09:02:01;;;;;;;2.13;0.80;;;22.30;99.90;;;;;;5026777;28;20194;-73
2021/05/27 09:04:27;;;;;;;1.80;0.73;;;22.50;99.90;;;;;;5024244;28;20562;-72
2021/05/27 09:06:52;;;;;;;2.00;0.70;;;22.10;99.90;;;;;;5024472;28;20457;-71
2021/05/27 09:09:18;;;;;;;0.83;0.67;;;22.60;99.90;;;;;;5016477;28;20279;-72
2021/05/27 09:11:46;;;;;;;2.97;0.53;;;22.70;99.90;;;;;;5021610;28;20186;-71
2021/05/27 09:14:12;;;;;;;0.83;0.80;;;22.10;99.90;;;;;;5029866;28;20660;-71
2021/05/27 09:16:54;;;;;;;2.13;1.00;;;22.10;99.90;;;;;;5030662;28;20456;-71
2021/05/27 09:19:20;;;;;;;8.30;1.10;;;21.40;99.90;;;;;;5013494;28;20471;-71
2021/05/27 09:21:45;;;;;;;2.43;0.70;;;20.50;99.90;;;;;;5014591;28;20421;-71
2021/05/27 09:24:12;;;;;;;2.53;1.00;;;19.90;99.90;;;;;;5015275;28;20190;-72
2021/05/27 09:26:55;;;;;;;2.33;0.93;;;19.00;99.90;;;;;;5012565;28;20186;-71
2021/05/27 09:29:22;;;;;;;1.23;0.90;;;18.90;99.90;;;;;;5032770;28;20613;-71
2021/05/27 09:32:03;;;;;;;1.80;0.60;;;18.60;99.90;;;;;;5015303;28;20421;-74
2021/05/27 09:34:46;;;;;;;1.20;0.70;;;18.20;99.90;;;;;;5020594;28;20408;-70
2021/05/27 09:37:21;;;;;;;1.13;0.80;;;18.10;99.90;;;;;;5032799;28;20875;-71
2021/05/27 09:39:49;;;;;;;2.13;0.70;;;19.00;99.90;;;;;;5026886;28;20526;-70
2021/05/27 09:42:15;;;;;;;0.90;0.60;;;20.10;99.90;;;;;;5021425;28;20483;-73
2021/05/27 09:44:41;;;;;;;3.10;2.90;;;21.00;99.90;;;;;;5033015;28;20420;-71
2021/05/27 09:47:07;;;;;;;4.47;1.90;;;21.50;99.90;;;;;;5032727;28;20194;-75
2021/05/27 09:49:33;;;;;;;5.13;4.50;;;21.00;99.90;;;;;;5032460;28;20209;-76
2021/05/27 09:52:14;;;;;;;3.73;3.33;;;20.30;99.90;;;;;;4992187;28;20440;-74
2021/05/27 09:54:59;;;;;;;1.97;1.00;;;20.10;99.90;;;;;;5012854;28;20512;-74
2021/05/27 09:57:27;;;;;;;1.10;1.10;;;20.00;99.90;;;;;;5024992;28;20503;-74
2021/05/27 09:59:53;;;;;;;1.10;0.70;;;19.90;99.90;;;;;;5024187;28;20429;-74
2021/05/27 10:02:21;;;;;;;1.27;0.70;;;19.60;99.90;;;;;;5014586;28;21096;-74
2021/05/27 10:04:56;;;;;;;1.53;0.80;;;19.60;99.90;;;;;;5030889;28;20429;-74
2021/05/27 10:07:37;;;;;;;1.83;0.70;;;19.10;99.90;;;;;;5024810;28;20519;-74
2021/05/27 10:10:06;;;;;;;2.23;1.10;;;18.80;99.90;;;;;;5003127;28;20811;-75
2021/05/27 10:12:37;;;;;;;1.80;0.80;;;18.50;99.90;;;;;;5032237;28;20409;-74
2021/05/27 10:15:04;;;;;;;1.67;1.00;;;18.00;99.90;;;;;;5032819;28;20412;-74
2021/05/27 10:17:30;;;;;;;0.70;0.70;;;17.50;99.90;;;;;;5032795;28;20433;-73
2021/05/27 10:19:56;;;;;;;0.80;0.80;;;17.10;99.90;;;;;;5031294;28;20464;-74
2021/05/27 10:22:22;;;;;;;5.10;1.30;;;16.80;99.90;;;;;;5031229;28;20467;-74
2021/05/27 10:24:47;;;;;;;2.70;1.20;;;16.60;99.90;;;;;;5031352;28;20189;-74
2021/05/27 10:27:13;;;;;;;0.80;0.80;;;16.60;99.90;;;;;;5028550;28;20257;-74
2021/05/27 10:29:39;;;;;;;1.27;0.70;;;16.60;99.90;;;;;;5024380;28;20771;-73
2021/05/27 10:32:05;;;;;;;0.90;0.90;;;16.70;99.90;;;;;;5010478;28;20224;-73
2021/05/27 10:34:42;;;;;;;9.03;2.43;;;16.50;99.90;;;;;;5031097;28;20170;-75
2021/05/27 10:37:08;;;;;;;2.50;1.23;;;16.30;99.90;;;;;;5032037;28;20491;-73
2021/05/27 10:39:34;;;;;;;8.23;1.03;;;16.10;99.90;;;;;;5032448;28;20823;-74
2021/05/27 10:42:00;;;;;;;4.30;1.07;;;16.10;99.90;;;;;;5031355;28;20272;-74
2021/05/27 10:44:25;;;;;;;3.20;0.87;;;16.10;99.90;;;;;;5031465;28;20205;-75
2021/05/27 10:46:57;;;;;;;3.67;1.07;;;16.30;99.90;;;;;;5030867;28;20476;-75
2021/05/27 10:49:45;;;;;;;2.30;1.70;;;16.50;99.90;;;;;;5032295;28;20769;-75
2021/05/27 10:52:33;;;;;;;2.07;1.30;;;17.20;99.90;;;;;;5017123;28;20437;-76
2021/05/27 10:54:59;;;;;;;2.10;1.33;;;17.70;99.90;;;;;;5011536;28;20430;-75
2021/05/27 10:57:40;;;;;;;2.50;2.10;;;17.60;99.90;;;;;;5029817;28;20494;-74
2021/05/27 11:00:46;;;;;;;2.40;1.57;;;17.60;99.90;;;;;;5017449;28;20179;-73
2021/05/27 11:03:49;;;;;;;1.40;0.97;;;17.40;99.90;;;;;;5025623;28;20847;-73
2021/05/27 11:06:30;;;;;;;4.17;1.43;;;17.40;99.90;;;;;;5015128;28;20530;-73
2021/05/27 11:09:16;;;;;;;1.30;1.23;;;17.30;99.90;;;;;;5031586;28;20518;-72
2021/05/27 11:11:49;;;;;;;3.83;1.40;;;17.60;99.90;;;;;;5031542;28;20429;-72
2021/05/27 11:14:31;;;;;;;9.20;2.67;;;18.40;99.90;;;;;;5031022;28;20456;-73
2021/05/27 11:17:14;;;;;;;1.50;0.90;;;19.20;99.90;;;;;;5031107;28;20523;-72
2021/05/27 11:19:50;;;;;;;1.00;1.00;;;19.30;99.90;;;;;;5031809;28;20408;-73
2021/05/27 11:22:33;;;;;;;1.00;1.00;;;19.50;99.90;;;;;;5030994;28;20439;-74
2021/05/27 11:27:34;;;;;;;0.70;0.70;;;20.40;99.90;;;;;;5031047;28;20455;-72
2021/05/27 11:30:19;;;;;;;1.60;0.80;;;20.40;99.90;;;;;;5031447;28;20409;-72
2021/05/27 11:32:49;;;;;;;3.17;1.00;;;21.00;99.90;;;;;;5031271;28;20427;-71
2021/05/27 11:35:17;;;;;;;3.33;1.33;;;21.20;99.90;;;;;;5030729;28;20504;-71
2021/05/27 11:37:45;;;;;;;2.20;1.33;;;20.90;99.90;;;;;;5030724;28;20449;-73
2021/05/27 11:40:15;;;;;;;1.03;0.93;;;20.60;99.90;;;;;;5013574;28;20425;-73
2021/05/27 11:42:46;;;;;;;2.03;1.00;;;19.90;99.90;;;;;;5031105;28;20478;-73
2021/05/27 11:45:11;;;;;;;1.03;1.03;;;19.40;99.90;;;;;;5031065;28;20447;-73
2021/05/27 11:47:37;;;;;;;0.97;0.83;;;18.70;99.90;;;;;;5029038;28;20475;-73
2021/05/27 11:50:07;;;;;;;1.13;0.80;;;18.40;99.90;;;;;;5029692;28;20174;-73
2021/05/27 11:52:33;;;;;;;4.90;0.87;;;19.00;99.90;;;;;;5030186;28;20182;-72
2021/05/27 11:54:59;;;;;;;1.20;1.00;;;19.40;99.90;;;;;;5030330;28;20436;-72
2021/05/27 11:57:43;;;;;;;1.30;0.97;;;19.40;99.90;;;;;;5029559;28;20498;-73
2021/05/27 12:00:11;;;;;;;2.30;0.90;;;19.10;99.90;;;;;;5030412;28;20177;-73
2021/05/27 12:02:48;;;;;;;1.20;0.83;;;19.00;99.90;;;;;;5030993;28;20463;-73
2021/05/27 12:05:25;;;;;;;0.90;0.80;;;19.10;99.90;;;;;;5013223;28;20408;-73
2021/05/27 12:08:12;;;;;;;0.87;0.87;;;19.50;99.90;;;;;;5030913;28;20456;-73
2021/05/27 12:10:45;;;;;;;0.87;0.60;;;19.60;99.90;;;;;;5022894;28;20935;-73
2021/05/27 12:13:22;;;;;;;1.70;0.87;;;19.50;99.90;;;;;;5028970;28;20425;-73
2021/05/27 12:15:49;;;;;;;3.00;1.03;;;19.30;99.90;;;;;;5030699;28;20428;-73
2021/05/27 12:18:17;;;;;;;1.93;1.07;;;18.90;99.90;;;;;;5030917;28;20460;-73
2021/05/27 12:20:47;;;;;;;1.33;1.00;;;18.80;99.90;;;;;;5030589;28;20432;-73
2021/05/27 12:23:16;;;;;;;1.83;0.83;;;18.70;99.90;;;;;;5030878;28;20498;-73
2021/05/27 12:25:49;;;;;;;2.87;0.80;;;19.10;99.90;;;;;;5013369;28;20440;-72
2021/05/27 12:28:17;;;;;;;1.83;0.80;;;19.30;99.90;;;;;;5030777;28;21027;-73
2021/05/27 12:30:53;;;;;;;1.53;0.80;;;19.40;99.90;;;;;;5030156;28;20534;-73
2021/05/27 12:33:24;;;;;;;1.97;1.20;;;19.30;99.90;;;;;;5030622;28;20428;-73
2021/05/27 12:35:51;;;;;;;2.17;1.30;;;19.20;99.90;;;;;;5012460;28;20511;-71
2021/05/27 12:38:29;;;;;;;2.00;0.97;;;18.90;99.90;;;;;;5011043;28;21134;-72
2021/05/27 12:40:55;;;;;;;1.97;1.00;;;19.10;99.90;;;;;;5025169;28;20913;-71
2021/05/27 12:43:33;;;;;;;2.37;0.90;;;19.10;99.90;;;;;;5029311;28;20437;-71
2021/05/27 12:45:59;;;;;;;2.40;1.00;;;19.00;99.90;;;;;;5017572;28;20440;-72
2021/05/27 12:48:28;;;;;;;1.80;0.80;;;19.00;99.90;;;;;;5030264;28;21011;-71
2021/05/27 12:50:58;;;;;;;2.20;1.20;;;18.80;99.90;;;;;;5012575;28;20452;-72
2021/05/27 12:53:49;;;;;;;0.60;0.60;;;18.80;99.90;;;;;;5025930;28;20431;-72
2021/05/27 12:56:16;;;;;;;1.33;0.80;;;18.80;99.90;;;;;;5027083;28;20437;-72
2021/05/27 12:59:05;;;;;;;0.80;0.80;;;18.80;99.90;;;;;;5019187;28;20556;-72
2021/05/27 13:01:47;;;;;;;1.57;0.90;;;18.80;99.90;;;;;;5033976;28;20511;-71
2021/05/27 13:04:18;;;;;;;2.43;1.17;;;19.10;99.90;;;;;;5032194;28;20428;-72
2021/05/27 13:06:44;;;;;;;1.17;1.00;;;19.00;99.90;;;;;;5029639;28;20429;-72
2021/05/27 13:09:15;;;;;;;2.40;0.83;;;18.80;99.90;;;;;;5027125;28;20570;-72
2021/05/27 13:11:42;;;;;;;2.30;0.70;;;18.70;99.90;;;;;;5033793;28;20439;-73